Time;durP1;ratioP1;P1;durP2;ratioP2;P2;SDS_P1;SDS_P2;PMS_P1;PMS_P2;Temp;Humidity;BMP_temperature;BMP_pressure;BME280_temperature;BME280_humidity;BME280_pressure;Samples;Min_cycle;Max_cycle;Signal;HPM_P1;HPM_P2
2023/02/14 00:00:05;;;;;;;50.10;28.10;;;;;;;2.44;78.98;98851.86;108967;1249;94205;-74
2023/02/14 00:02:55;;;;;;;37.00;23.30;;;;;;;2.42;78.96;98849.21;108685;1251;94867;-75
2023/02/14 00:05:23;;;;;;;33.80;21.70;;;;;;;2.40;79.11;98837.09;108724;1251;102197;-74
2023/02/14 00:07:51;;;;;;;31.90;21.80;;;;;;;2.41;79.03;98840.59;108990;1250;101638;-76
2023/02/14 00:10:20;;;;;;;38.60;24.40;;;;;;;2.41;79.09;98843.22;108960;1250;97791;-74
2023/02/14 00:12:48;;;;;;;44.60;25.20;;;;;;;2.41;79.04;98839.32;108951;1249;94193;-73
2023/02/14 00:15:22;;;;;;;40.80;23.70;;;;;;;2.41;79.09;98835.26;109034;1249;95740;-74
2023/02/14 00:17:55;;;;;;;29.70;21.30;;;;;;;2.41;78.97;98835.62;109050;1249;102166;-74
2023/02/14 00:20:23;;;;;;;34.40;23.80;;;;;;;2.41;79.11;98833.64;108991;1251;100986;-74
2023/02/14 00:22:53;;;;;;;51.00;30.80;;;;;;;2.43;79.24;98837.74;109029;1250;99986;-74
2023/02/14 00:25:21;;;;;;;49.20;29.40;;;;;;;2.40;79.39;98835.98;108970;1249;94226;-74
2023/02/14 00:27:49;;;;;;;62.70;32.40;;;;;;;2.36;79.40;98832.09;109006;1249;94479;-74
2023/02/14 00:30:17;;;;;;;43.00;24.30;;;;;;;2.34;79.42;98830.81;109019;1249;102390;-74
2023/02/14 00:32:45;;;;;;;39.00;25.40;;;;;;;2.32;79.39;98830.29;109048;1251;101441;-77
2023/02/14 00:35:13;;;;;;;45.60;28.30;;;;;;;2.29;79.21;98830.55;108624;1251;100170;-74
2023/02/14 00:37:42;;;;;;;66.00;32.90;;;;;;;2.26;79.28;98829.20;108957;1251;94331;-74
2023/02/14 00:40:10;;;;;;;57.60;30.30;;;;;;;2.25;79.46;98832.26;109004;1250;94523;-75
2023/02/14 00:42:38;;;;;;;43.00;26.80;;;;;;;2.23;79.46;98836.15;109006;1249;102241;-74
2023/02/14 00:45:07;;;;;;;44.80;25.80;;;;;;;2.20;79.47;98832.85;108974;1250;101026;-75
2023/02/14 00:47:35;;;;;;;43.10;26.00;;;;;;;2.18;79.44;98829.64;108610;1251;100154;-73
2023/02/14 00:50:03;;;;;;;62.00;31.70;;;;;;;2.17;79.60;98830.23;108996;1251;94571;-74
2023/02/14 00:52:32;;;;;;;52.30;30.20;;;;;;;2.19;79.72;98832.58;109019;1250;94451;-75
2023/02/14 00:55:00;;;;;;;51.30;28.20;;;;;;;2.15;79.67;98830.74;109016;1249;102341;-74
2023/02/14 00:57:28;;;;;;;42.70;27.00;;;;;;;2.14;79.69;98829.98;109026;1250;101218;-77
2023/02/14 00:59:56;;;;;;;40.90;26.80;;;;;;;2.16;79.74;98833.54;108704;1251;99912;-74
2023/02/14 01:02:24;;;;;;;41.20;25.90;;;;;;;2.17;79.81;98833.95;108877;1250;94295;-75
2023/02/14 01:04:52;;;;;;;40.20;25.00;;;;;;;2.17;79.77;98834.48;109017;1250;94496;-76
2023/02/14 01:07:23;;;;;;;42.40;25.90;;;;;;;2.18;79.73;98833.76;109022;1251;102217;-75
2023/02/14 01:09:51;;;;;;;37.30;24.40;;;;;;;2.17;79.89;98829.40;109029;1250;101392;-74
2023/02/14 01:12:19;;;;;;;34.40;21.90;;;;;;;2.20;79.93;98828.27;109006;1250;99697;-75
2023/02/14 01:14:47;;;;;;;37.20;24.70;;;;;;;2.24;80.04;98825.78;108963;1250;94696;-76
2023/02/14 01:17:15;;;;;;;32.10;22.30;;;;;;;2.27;79.93;98823.22;108985;1250;94546;-77
2023/02/14 01:19:44;;;;;;;32.90;22.80;;;;;;;2.30;79.87;98827.05;108964;1251;101182;-76
2023/02/14 01:22:12;;;;;;;36.00;23.40;;;;;;;2.30;79.82;98827.08;108652;1251;101256;-74
2023/02/14 01:24:40;;;;;;;35.70;23.10;;;;;;;2.25;79.68;98826.63;108935;1251;100137;-76
2023/02/14 01:27:08;;;;;;;31.40;21.90;;;;;;;2.21;79.82;98824.63;109022;1250;94595;-74
2023/02/14 01:29:36;;;;;;;33.90;22.50;;;;;;;2.21;79.79;98821.42;108770;1250;94615;-74
2023/02/14 01:32:05;;;;;;;34.60;23.70;;;;;;;2.20;79.81;98819.73;108994;1251;102090;-74
2023/02/14 01:34:35;;;;;;;33.20;22.30;;;;;;;2.18;79.76;98821.98;108703;1250;101788;-76
2023/02/14 01:37:03;;;;;;;37.40;23.60;;;;;;;2.17;79.83;98822.98;108967;1249;99044;-76
2023/02/14 01:39:31;;;;;;;30.20;20.30;;;;;;;2.14;79.83;98825.55;108572;1251;94483;-74
2023/02/14 01:41:59;;;;;;;34.90;20.50;;;;;;;2.15;79.92;98822.81;108917;1250;94477;-74
2023/02/14 01:44:37;;;;;;;29.30;19.70;;;;;;;2.16;79.94;98821.67;109004;1250;102291;-74
2023/02/14 01:47:09;;;;;;;30.70;20.40;;;;;;;2.11;79.90;98822.39;109035;1250;101718;-74
2023/02/14 01:49:53;;;;;;;29.50;20.00;;;;;;;2.08;80.07;98818.42;108966;1249;99927;-74
2023/02/14 01:52:29;;;;;;;28.90;19.00;;;;;;;2.04;80.12;98817.98;108658;1257;94338;-75
2023/02/14 01:55:10;;;;;;;30.70;20.20;;;;;;;2.04;80.27;98818.55;109007;1250;94490;-74
2023/02/14 01:57:50;;;;;;;27.50;20.20;;;;;;;2.05;80.22;98818.43;108685;1250;102315;-74
2023/02/14 02:03:05;;;;;;;26.50;18.90;;;;;;;2.04;80.34;98816.80;108990;1250;99962;-74
2023/02/14 02:05:36;;;;;;;35.50;21.60;;;;;;;2.03;80.21;98815.79;108807;1251;94238;-74
2023/02/14 02:08:05;;;;;;;34.90;22.10;;;;;;;2.04;80.25;98821.91;109021;1253;94534;-74
2023/02/14 02:10:33;;;;;;;29.10;20.20;;;;;;;2.04;80.24;98825.24;109051;1249;102234;-73
2023/02/14 02:13:06;;;;;;;29.30;20.90;;;;;;;2.04;80.30;98824.38;109006;1250;101429;-73
2023/02/14 02:16:08;;;;;;;32.10;20.70;;;;;;;2.04;80.16;98820.83;108949;1250;99634;-77
2023/02/14 02:18:54;;;;;;;28.10;20.20;;;;;;;2.03;80.38;98821.67;108960;1250;94189;-76
2023/02/14 02:21:55;;;;;;;33.90;21.50;;;;;;;2.02;80.52;98821.58;109015;1250;95288;-74
2023/02/14 02:24:44;;;;;;;31.40;21.30;;;;;;;2.00;80.52;98819.59;108266;1259;102403;-74
2023/02/14 02:27:28;;;;;;;35.10;22.60;;;;;;;2.00;80.54;98811.03;108251;1259;101487;-76
2023/02/14 02:30:08;;;;;;;33.80;22.70;;;;;;;2.03;80.70;98808.35;108217;1260;99879;-74
2023/02/14 02:33:09;;;;;;;35.70;22.70;;;;;;;2.07;80.61;98807.84;108232;1259;94557;-74
2023/02/14 02:35:56;;;;;;;37.60;23.60;;;;;;;2.09;80.55;98809.09;108267;1259;94584;-75
2023/02/14 02:38:33;;;;;;;37.70;23.40;;;;;;;2.08;80.56;98811.83;108209;1259;102262;-75
2023/02/14 02:41:32;;;;;;;31.90;22.00;;;;;;;2.06;80.65;98817.54;108210;1259;101382;-74
2023/02/14 02:44:08;;;;;;;35.60;23.10;;;;;;;2.05;80.66;98815.45;108155;1259;99948;-74
2023/02/14 02:46:49;;;;;;;33.40;22.90;;;;;;;2.04;80.61;98816.59;108046;1259;94327;-74
2023/02/14 02:56:44;;;;;;;34.80;23.40;;;;;;;2.02;80.84;98813.56;108045;1263;101208;-75
2023/02/14 02:58:27;;;;;;;33.80;23.00;;;;;;;2.01;80.84;98815.08;108032;1262;99818;-76
2023/02/14 03:00:56;;;;;;;39.90;24.10;;;;;;;1.98;80.75;98812.97;108237;1257;94391;-75
2023/02/14 03:06:12;;;;;;;36.10;24.50;;;;;;;1.96;80.83;98816.55;108483;1255;102359;-76
2023/02/14 03:08:40;;;;;;;42.90;24.20;;;;;;;1.95;80.86;98816.11;108387;1255;101254;-76
2023/02/14 03:11:10;;;;;;;38.20;25.00;;;;;;;1.95;80.95;98814.66;108529;1256;99887;-74
2023/02/14 03:14:12;;;;;;;36.90;23.70;;;;;;;1.95;80.85;98815.17;108529;1255;95755;-77
2023/02/14 03:16:59;;;;;;;41.00;26.20;;;;;;;1.94;80.86;98818.14;107921;1265;95967;-73
2023/02/14 03:22:51;;;;;;;36.80;24.70;;;;;;;1.91;80.99;98815.91;107763;1265;101508;-74
2023/02/14 03:25:58;;;;;;;37.90;25.10;;;;;;;1.91;80.95;98813.09;107909;1264;99981;-76
2023/02/14 03:28:46;;;;;;;37.50;24.20;;;;;;;1.92;80.96;98814.73;108159;1259;95990;-73
2023/02/14 03:31:14;;;;;;;45.30;26.40;;;;;;;1.93;80.93;98814.46;108196;1259;96053;-76
2023/02/14 03:33:55;;;;;;;43.10;27.30;;;;;;;1.92;80.88;98813.48;108212;1259;103404;-75
2023/02/14 03:36:29;;;;;;;42.50;27.30;;;;;;;1.91;80.97;98819.63;108148;1259;100515;-74
2023/02/14 03:39:07;;;;;;;41.80;26.20;;;;;;;1.92;81.00;98821.13;108179;1259;99733;-74
2023/02/14 03:41:47;;;;;;;39.80;25.90;;;;;;;1.93;81.02;98821.41;108072;1259;95701;-73
2023/02/14 03:44:20;;;;;;;41.10;26.10;;;;;;;1.91;80.94;98818.74;108198;1259;96138;-77
2023/02/14 03:46:55;;;;;;;39.80;24.20;;;;;;;1.90;80.97;98817.90;108207;1263;103651;-76
2023/02/14 03:49:28;;;;;;;39.00;25.80;;;;;;;1.87;80.96;98821.21;108164;1259;101453;-75
2023/02/14 03:52:00;;;;;;;39.30;24.80;;;;;;;1.86;80.93;98824.42;108167;1264;108264;-75
2023/02/14 03:54:31;;;;;;;43.60;25.90;;;;;;;1.88;81.00;98825.02;108785;1251;95777;-75
2023/02/14 03:57:17;;;;;;;42.60;27.70;;;;;;;1.87;81.04;98824.90;108866;1251;96002;-74
2023/02/14 03:59:46;;;;;;;44.20;26.30;;;;;;;1.82;81.02;98830.27;108521;1251;103054;-74
2023/02/14 04:02:23;;;;;;;43.80;27.90;;;;;;;1.80;81.01;98833.59;108917;1251;101345;-74
2023/02/14 04:04:53;;;;;;;43.00;26.20;;;;;;;1.80;81.09;98831.80;108869;1251;99548;-73
2023/02/14 04:07:24;;;;;;;44.60;27.90;;;;;;;1.82;81.27;98830.61;108900;1252;95635;-74
2023/02/14 04:09:52;;;;;;;44.20;27.30;;;;;;;1.84;81.34;98833.14;108987;1250;96014;-74
2023/02/14 04:12:21;;;;;;;44.30;28.40;;;;;;;1.78;81.24;98832.16;109061;1250;103509;-76
2023/02/14 04:14:49;;;;;;;43.20;27.00;;;;;;;1.74;81.18;98830.86;109010;1250;101357;-74
2023/02/14 04:20:02;;;;;;;40.40;26.10;;;;;;;1.77;81.32;98833.84;108948;1250;95516;-74
2023/02/14 04:22:30;;;;;;;44.10;28.70;;;;;;;1.79;81.12;98832.47;109024;1250;96014;-73
2023/02/14 04:24:58;;;;;;;46.30;28.10;;;;;;;1.80;81.20;98830.55;108957;1251;103427;-74
2023/02/14 04:27:26;;;;;;;42.00;27.30;;;;;;;1.80;80.99;98827.02;109027;1251;101373;-74
2023/02/14 04:29:55;;;;;;;44.00;28.50;;;;;;;1.78;81.12;98829.68;108948;1250;99671;-76
2023/02/14 04:32:23;;;;;;;41.20;26.60;;;;;;;1.77;81.15;98838.80;109014;1251;95817;-75
2023/02/14 04:34:51;;;;;;;43.50;28.20;;;;;;;1.79;81.17;98840.65;109004;1251;96075;-74
2023/02/14 04:37:20;;;;;;;45.20;28.50;;;;;;;1.78;81.23;98844.20;109006;1251;103562;-76
2023/02/14 04:39:48;;;;;;;43.80;28.30;;;;;;;1.75;81.33;98846.77;108967;1250;110093;-76
2023/02/14 04:42:17;;;;;;;47.00;30.30;;;;;;;1.75;81.38;98842.89;108943;1251;99887;-74
2023/02/14 04:44:45;;;;;;;45.80;28.90;;;;;;;1.75;81.33;98847.66;108967;1251;95796;-74
2023/02/14 04:47:13;;;;;;;46.20;28.50;;;;;;;1.77;81.27;98850.54;108730;1257;96484;-73
2023/02/14 04:49:41;;;;;;;42.10;27.20;;;;;;;1.77;81.40;98852.14;109050;1251;103553;-74
2023/02/14 04:52:09;;;;;;;48.60;29.90;;;;;;;1.78;81.32;98848.12;109009;1250;101322;-73
2023/02/14 04:54:37;;;;;;;43.60;28.90;;;;;;;1.79;81.36;98853.73;108848;1251;99857;-74
2023/02/14 04:57:05;;;;;;;43.90;27.60;;;;;;;1.78;81.44;98850.76;108949;1250;95748;-72
2023/02/14 04:59:34;;;;;;;45.10;29.40;;;;;;;1.72;81.42;98844.72;108974;1251;96037;-76
2023/02/14 05:02:02;;;;;;;44.10;28.60;;;;;;;1.71;81.49;98847.06;109000;1251;103583;-73
2023/02/14 05:04:30;;;;;;;49.70;30.60;;;;;;;1.74;81.65;98847.39;108977;1250;101658;-74
2023/02/14 05:06:59;;;;;;;45.10;28.60;;;;;;;1.77;81.58;98848.55;108975;1249;99760;-76
2023/02/14 05:09:28;;;;;;;46.70;30.50;;;;;;;1.78;81.63;98850.44;108619;1251;95879;-76
2023/02/14 05:11:56;;;;;;;43.80;29.00;;;;;;;1.78;81.64;98853.61;108959;1251;96065;-73
2023/02/14 05:14:24;;;;;;;46.50;29.00;;;;;;;1.78;81.32;98855.91;109008;1250;103575;-74
2023/02/14 05:16:52;;;;;;;44.30;28.00;;;;;;;1.79;81.59;98859.60;109046;1251;101152;-74
2023/02/14 05:19:20;;;;;;;50.70;32.60;;;;;;;1.79;81.57;98863.35;109006;1251;99996;-73
2023/02/14 05:21:48;;;;;;;51.60;31.70;;;;;;;1.82;81.55;98864.86;108985;1250;95614;-75
2023/02/14 05:24:18;;;;;;;45.80;29.20;;;;;;;1.83;81.35;98862.81;108973;1251;95949;-73
2023/02/14 05:26:46;;;;;;;47.30;31.10;;;;;;;1.79;81.34;98857.97;108987;1250;103156;-73
2023/02/14 05:29:14;;;;;;;50.10;31.60;;;;;;;1.79;81.46;98856.91;108839;1251;101362;-75
2023/02/14 05:31:42;;;;;;;45.20;30.60;;;;;;;1.82;81.56;98860.05;108891;1251;99923;-74
2023/02/14 05:34:11;;;;;;;48.90;32.90;;;;;;;1.80;81.38;98857.75;108968;1251;95596;-75
2023/02/14 05:36:39;;;;;;;52.00;33.10;;;;;;;1.80;81.47;98859.19;109018;1251;96048;-73
2023/02/14 05:39:07;;;;;;;51.80;31.40;;;;;;;1.82;81.54;98865.58;108965;1251;103649;-74
2023/02/14 05:41:35;;;;;;;54.40;34.60;;;;;;;1.83;81.55;98866.23;108730;1251;101064;-74
2023/02/14 05:44:04;;;;;;;52.50;31.80;;;;;;;1.83;81.61;98866.95;108940;1250;99750;-73
2023/02/14 05:46:32;;;;;;;57.90;34.20;;;;;;;1.83;81.62;98866.03;108977;1251;95573;-73
2023/02/14 05:49:00;;;;;;;86.20;46.70;;;;;;;1.87;81.63;98860.41;109009;1250;96167;-74
2023/02/14 05:51:28;;;;;;;76.10;42.40;;;;;;;1.91;81.65;98864.17;109020;1249;103453;-76
2023/02/14 05:53:58;;;;;;;75.40;42.20;;;;;;;1.93;81.62;98868.95;108980;1251;101237;-73
2023/02/14 05:56:27;;;;;;;74.90;40.70;;;;;;;1.93;81.45;98873.27;108973;1251;99972;-73
2023/02/14 05:58:55;;;;;;;71.20;40.90;;;;;;;1.89;81.41;98874.50;108968;1251;95587;-73
2023/02/14 06:01:24;;;;;;;72.50;40.30;;;;;;;1.86;81.42;98870.77;109020;1251;96015;-76
2023/02/14 06:03:52;;;;;;;74.40;39.10;;;;;;;1.87;81.42;98872.13;109009;1251;103442;-77
2023/02/14 06:06:20;;;;;;;67.00;37.40;;;;;;;1.87;81.59;98878.15;108698;1251;101566;-73
2023/02/14 06:08:48;;;;;;;66.50;38.00;;;;;;;1.86;81.60;98881.25;108949;1251;100283;-77
2023/02/14 06:11:16;;;;;;;67.40;38.10;;;;;;;1.87;81.66;98882.22;108964;1249;95529;-76
2023/02/14 06:13:44;;;;;;;61.40;35.70;;;;;;;1.88;81.60;98883.39;109022;1249;96039;-74
2023/02/14 06:16:12;;;;;;;56.90;35.10;;;;;;;1.83;81.58;98878.13;108980;1249;103434;-74
2023/02/14 06:18:41;;;;;;;60.20;34.90;;;;;;;1.78;81.66;98878.14;109023;1250;101115;-76
2023/02/14 06:21:09;;;;;;;65.90;38.50;;;;;;;1.79;81.68;98878.96;109004;1251;98700;-76
2023/02/14 06:23:37;;;;;;;54.90;34.40;;;;;;;1.82;81.74;98879.09;108941;1251;95538;-77
2023/02/14 06:26:05;;;;;;;54.50;34.40;;;;;;;1.83;81.76;98875.80;109018;1250;97036;-73
2023/02/14 06:28:33;;;;;;;56.30;36.70;;;;;;;1.82;81.71;98877.86;108974;1250;102992;-75
2023/02/14 06:31:01;;;;;;;59.60;36.30;;;;;;;1.83;81.74;98881.13;108980;1251;101428;-75
2023/02/14 06:33:29;;;;;;;56.90;36.50;;;;;;;1.86;81.83;98880.23;109007;1250;99812;-75
2023/02/14 06:35:57;;;;;;;63.50;38.00;;;;;;;1.88;81.78;98879.88;108962;1250;95543;-74
2023/02/14 06:38:25;;;;;;;57.40;36.90;;;;;;;1.89;81.82;98879.21;108985;1250;97025;-75
2023/02/14 06:40:53;;;;;;;58.00;37.10;;;;;;;1.89;81.77;98883.30;108675;1251;103476;-74
2023/02/14 06:43:21;;;;;;;63.40;38.60;;;;;;;1.91;81.70;98886.88;109022;1251;101241;-74
2023/02/14 06:45:50;;;;;;;60.60;39.30;;;;;;;1.92;81.89;98881.27;108952;1250;100062;-73
2023/02/14 06:48:18;;;;;;;63.10;39.60;;;;;;;1.93;82.05;98881.02;108953;1251;95925;-74
2023/02/14 06:50:48;;;;;;;68.10;41.60;;;;;;;1.95;81.93;98880.54;109061;1251;95940;-73
2023/02/14 06:53:16;;;;;;;64.20;42.10;;;;;;;1.97;82.02;98884.63;109001;1249;103299;-74
2023/02/14 06:55:44;;;;;;;65.20;41.30;;;;;;;1.99;81.94;98881.63;109050;1251;101205;-73
2023/02/14 06:58:13;;;;;;;62.30;39.40;;;;;;;2.01;81.94;98880.93;108987;1251;98314;-73
2023/02/14 07:00:41;;;;;;;59.50;40.00;;;;;;;2.03;81.89;98877.05;108966;1251;95614;-76
2023/02/14 07:03:09;;;;;;;68.40;41.30;;;;;;;2.01;81.98;98872.75;108623;1256;96136;-73
2023/02/14 07:05:37;;;;;;;61.10;39.30;;;;;;;2.01;82.07;98874.21;108996;1250;103722;-75
2023/02/14 07:08:07;;;;;;;62.80;41.90;;;;;;;2.03;81.97;98877.38;108977;1251;101325;-74
2023/02/14 07:10:35;;;;;;;62.60;40.30;;;;;;;2.07;81.99;98877.63;108983;1251;99764;-74
2023/02/14 07:13:04;;;;;;;70.70;42.90;;;;;;;2.10;82.11;98878.96;108936;1250;95652;-76
2023/02/14 07:15:32;;;;;;;66.00;43.40;;;;;;;2.14;82.10;98875.77;108613;1251;96107;-73
2023/02/14 07:18:00;;;;;;;67.10;42.60;;;;;;;2.19;82.08;98874.70;108963;1251;103627;-73
2023/02/14 07:20:28;;;;;;;58.10;36.20;;;;;;;2.21;82.00;98872.58;109012;1250;100039;-74
2023/02/14 07:22:56;;;;;;;71.80;39.90;;;;;;;2.21;81.80;98871.31;108964;1250;98493;-74
2023/02/14 07:25:27;;;;;;;66.50;39.90;;;;;;;2.24;81.96;98873.23;108923;1251;95572;-73
2023/02/14 07:27:55;;;;;;;56.10;35.60;;;;;;;2.23;82.04;98873.80;109017;1250;96012;-77
2023/02/14 07:30:23;;;;;;;44.90;29.80;;;;;;;2.24;81.96;98875.51;109007;1251;103893;-75
2023/02/14 07:32:51;;;;;;;49.80;32.90;;;;;;;2.27;81.94;98873.00;109011;1251;100879;-73
2023/02/14 07:35:20;;;;;;;49.50;32.40;;;;;;;2.31;81.86;98879.25;109012;1249;98566;-74
2023/02/14 07:37:50;;;;;;;49.80;32.70;;;;;;;2.33;81.88;98887.79;108996;1251;95719;-74
2023/02/14 07:40:19;;;;;;;53.00;34.10;;;;;;;2.33;81.99;98884.23;108624;1251;96440;-77
2023/02/14 07:42:54;;;;;;;55.60;34.60;;;;;;;2.34;81.89;98884.64;109009;1251;103197;-75
2023/02/14 07:45:24;;;;;;;52.70;33.40;;;;;;;2.36;82.04;98885.71;109021;1251;101410;-74
2023/02/14 07:47:57;;;;;;;48.20;32.00;;;;;;;2.41;82.03;98886.79;108607;1251;99290;-73
2023/02/14 07:50:26;;;;;;;43.60;30.10;;;;;;;2.44;81.99;98887.89;108898;1250;95929;-77
2023/02/14 07:52:54;;;;;;;48.40;31.40;;;;;;;2.47;81.78;98893.88;108954;1251;96419;-74
2023/02/14 07:55:25;;;;;;;63.40;42.80;;;;;;;2.48;81.93;98894.48;109015;1251;104056;-74
2023/02/14 07:57:53;;;;;;;77.30;47.50;;;;;;;2.49;81.88;98895.12;108707;1251;204870;-77
2023/02/14 08:00:21;;;;;;;71.00;45.40;;;;;;;2.51;81.89;98900.30;108920;1251;99563;-74
2023/02/14 08:02:49;;;;;;;72.80;44.50;;;;;;;2.53;81.90;98897.11;108978;1251;95533;-74
2023/02/14 08:05:18;;;;;;;72.20;43.90;;;;;;;2.55;81.70;98895.91;108948;1251;96029;-74
2023/02/14 08:07:46;;;;;;;58.00;36.60;;;;;;;2.58;81.77;98897.29;108730;1254;103624;-75
2023/02/14 08:10:14;;;;;;;61.90;38.80;;;;;;;2.60;81.86;98899.03;109001;1251;101314;-76
2023/02/14 08:13:02;;;;;;;56.70;36.40;;;;;;;2.62;81.73;98898.02;108978;1250;99801;-74
2023/02/14 08:18:29;;;;;;;65.10;40.20;;;;;;;2.64;81.74;98898.23;108400;1257;96004;-75
2023/02/14 08:20:57;;;;;;;76.40;48.50;;;;;;;2.67;81.66;98897.63;108231;1257;103631;-74
2023/02/14 08:23:25;;;;;;;88.60;51.50;;;;;;;2.69;81.71;98897.58;108509;1256;101335;-74
2023/02/14 08:25:53;;;;;;;80.30;49.00;;;;;;;2.72;81.66;98898.80;108380;1256;99599;-76
2023/02/14 08:28:22;;;;;;;64.00;40.00;;;;;;;2.70;81.65;98898.11;108405;1257;95916;-74
2023/02/14 08:30:51;;;;;;;62.80;37.10;;;;;;;2.72;81.68;98897.41;108432;1257;95994;-74
2023/02/14 08:33:19;;;;;;;68.70;41.20;;;;;;;2.75;81.66;98901.91;108403;1257;103701;-74
2023/02/14 08:35:48;;;;;;;73.50;44.60;;;;;;;2.72;81.45;98900.73;108414;1257;101713;-77
2023/02/14 08:38:16;;;;;;;64.60;37.70;;;;;;;2.68;81.41;98904.43;108397;1256;99965;-74
2023/02/14 08:40:44;;;;;;;52.20;31.30;;;;;;;2.68;81.39;98908.14;108406;1256;95614;-74
2023/02/14 08:43:13;;;;;;;51.80;29.90;;;;;;;2.73;81.18;98907.08;108398;1256;96161;-74
2023/02/14 08:45:41;;;;;;;53.60;31.30;;;;;;;2.77;81.11;98908.31;108406;1257;103471;-74
2023/02/14 08:48:12;;;;;;;50.40;28.80;;;;;;;2.80;81.16;98912.02;108424;1257;101306;-77
2023/02/14 08:50:41;;;;;;;50.20;30.30;;;;;;;2.85;81.15;98919.04;108380;1256;99418;-75
2023/02/14 08:53:11;;;;;;;49.30;30.30;;;;;;;2.88;81.15;98918.06;108397;1257;95701;-75
2023/02/14 08:55:40;;;;;;;43.40;26.40;;;;;;;2.89;81.24;98917.95;108862;1251;96573;-76
2023/02/14 08:58:08;;;;;;;61.70;27.80;;;;;;;2.90;81.10;98925.33;108947;1249;103493;-74
2023/02/14 09:00:36;;;;;;;63.10;29.40;;;;;;;2.93;80.93;98924.91;108939;1250;101059;-75
2023/02/14 09:03:04;;;;;;;47.10;26.10;;;;;;;2.99;80.80;98927.29;108865;1249;99895;-74
2023/02/14 09:05:34;;;;;;;54.70;34.20;;;;;;;3.03;80.65;98927.33;108898;1250;95843;-74
2023/02/14 09:08:03;;;;;;;60.50;37.00;;;;;;;3.03;80.80;98923.20;108938;1251;96193;-74
2023/02/14 09:10:31;;;;;;;62.60;36.50;;;;;;;3.02;80.82;98921.03;108933;1249;103404;-73
2023/02/14 09:13:00;;;;;;;56.10;34.50;;;;;;;3.01;80.89;98928.53;108968;1250;101249;-74
2023/02/14 09:15:28;;;;;;;35.40;21.40;;;;;;;3.02;80.84;98929.71;108878;1249;99932;-74
2023/02/14 09:17:56;;;;;;;31.20;19.60;;;;;;;3.03;80.65;98930.31;108907;1249;95769;-74
2023/02/14 09:20:24;;;;;;;28.30;16.40;;;;;;;3.05;80.46;98933.19;108896;1251;96049;-74
2023/02/14 09:22:56;;;;;;;31.70;19.10;;;;;;;3.09;80.33;98938.73;108596;1251;103823;-76
2023/02/14 09:25:24;;;;;;;28.30;18.20;;;;;;;3.14;80.14;98937.05;108875;1251;101812;-74
2023/02/14 09:27:52;;;;;;;30.80;18.40;;;;;;;3.18;79.87;98938.67;108571;1251;99996;-75
2023/02/14 09:30:20;;;;;;;27.90;17.10;;;;;;;3.22;79.82;98946.33;108878;1249;95823;-74
2023/02/14 09:32:48;;;;;;;28.30;17.70;;;;;;;3.24;79.56;98943.48;108516;1251;95673;-75
2023/02/14 09:35:17;;;;;;;29.20;18.80;;;;;;;3.28;79.50;98943.17;108919;1250;103501;-74
2023/02/14 09:37:45;;;;;;;31.40;18.90;;;;;;;3.31;79.64;98946.84;108913;1250;101017;-76
2023/02/14 09:40:16;;;;;;;29.80;18.10;;;;;;;3.33;79.71;98941.91;108849;1250;101547;-77
2023/02/14 09:43:03;;;;;;;30.60;19.60;;;;;;;3.36;79.42;98945.02;108653;1251;95794;-74
2023/02/14 09:45:33;;;;;;;35.90;21.00;;;;;;;3.40;79.33;98948.59;108680;1251;96117;-74
2023/02/14 09:48:25;;;;;;;36.30;22.60;;;;;;;3.45;79.17;98946.92;108675;1251;102988;-74
2023/02/14 09:51:02;;;;;;;32.50;19.80;;;;;;;3.49;79.21;98949.61;108831;1251;109773;-74
2023/02/14 09:53:34;;;;;;;26.40;16.30;;;;;;;3.50;79.11;98951.98;108623;1251;98783;-74
2023/02/14 09:56:23;;;;;;;28.20;16.10;;;;;;;3.54;78.85;98952.38;108817;1250;95978;-74
2023/02/14 09:59:17;;;;;;;29.00;17.90;;;;;;;3.57;78.61;98953.55;108838;1250;96011;-74
2023/02/14 10:02:17;;;;;;;24.60;15.20;;;;;;;3.58;78.57;98950.77;108975;1250;103528;-74
2023/02/14 10:05:15;;;;;;;22.20;15.20;;;;;;;3.60;78.52;98950.11;108946;1249;101407;-75
2023/02/14 10:08:14;;;;;;;25.70;14.90;;;;;;;3.63;78.36;98949.46;108213;1259;99931;-77
2023/02/14 10:10:44;;;;;;;26.70;16.30;;;;;;;3.67;78.29;98951.11;108223;1258;95889;-74
2023/02/14 10:13:35;;;;;;;27.70;16.60;;;;;;;3.72;78.30;98949.26;108257;1257;96142;-74
2023/02/14 10:16:44;;;;;;;29.10;17.60;;;;;;;3.79;78.24;98949.52;108292;1259;102115;-74
2023/02/14 10:19:26;;;;;;;28.20;17.20;;;;;;;3.87;78.16;98952.00;108272;1258;101311;-74
2023/02/14 10:22:05;;;;;;;32.60;22.30;;;;;;;3.90;78.12;98947.85;108132;1257;98910;-74
2023/02/14 10:24:47;;;;;;;36.80;22.80;;;;;;;3.88;77.95;98945.48;108172;1257;95885;-76
2023/02/14 10:27:35;;;;;;;44.40;27.20;;;;;;;3.91;77.99;98937.58;108279;1259;96069;-74
2023/02/14 10:30:16;;;;;;;35.90;20.50;;;;;;;4.02;78.01;98935.44;108265;1258;103528;-74
2023/02/14 10:32:49;;;;;;;27.30;18.10;;;;;;;4.12;77.83;98933.48;108174;1259;100122;-74
2023/02/14 10:35:35;;;;;;;32.30;17.00;;;;;;;4.18;77.67;98930.10;108243;1257;99520;-76
2023/02/14 10:38:30;;;;;;;26.10;18.20;;;;;;;4.24;77.44;98924.25;108231;1257;95742;-73
2023/02/14 10:41:42;;;;;;;29.30;17.50;;;;;;;4.29;77.25;98929.44;108226;1257;96025;-73
2023/02/14 10:44:25;;;;;;;32.40;18.30;;;;;;;4.38;77.30;98925.45;108003;1263;103233;-73
2023/02/14 10:47:12;;;;;;;29.80;17.40;;;;;;;4.45;77.13;98923.98;108230;1258;101485;-74
2023/02/14 10:50:05;;;;;;;31.70;16.90;;;;;;;4.39;76.67;98923.02;108179;1259;99909;-77
2023/02/14 10:52:48;;;;;;;26.70;17.10;;;;;;;4.33;76.75;98919.34;108200;1259;95586;-75
2023/02/14 10:55:26;;;;;;;25.50;15.60;;;;;;;4.38;76.76;98913.55;108099;1257;96073;-73
2023/02/14 10:57:56;;;;;;;30.10;16.50;;;;;;;4.44;76.68;98913.02;108262;1258;102661;-74
2023/02/14 11:00:31;;;;;;;27.20;16.70;;;;;;;4.47;76.54;98908.92;108258;1259;101738;-74
2023/02/14 11:03:04;;;;;;;27.80;17.00;;;;;;;4.50;76.51;98904.78;108223;1258;99186;-75
2023/02/14 11:05:43;;;;;;;28.30;16.90;;;;;;;4.53;76.30;98909.73;108237;1260;95629;-74
2023/02/14 11:08:39;;;;;;;28.20;17.00;;;;;;;4.54;76.28;98909.54;108292;1257;96439;-75
2023/02/14 11:11:07;;;;;;;24.90;16.10;;;;;;;4.55;76.15;98903.27;108131;1257;103497;-74
2023/02/14 11:13:37;;;;;;;28.30;16.70;;;;;;;4.56;76.11;98897.33;108266;1257;101269;-74
2023/02/14 11:16:12;;;;;;;21.30;15.10;;;;;;;4.57;75.92;98895.75;108131;1257;99794;-75
2023/02/14 11:18:41;;;;;;;24.10;16.10;;;;;;;4.63;75.93;98894.31;108269;1256;95618;-75
2023/02/14 11:21:16;;;;;;;25.90;16.30;;;;;;;4.71;75.90;98890.45;108718;1251;96672;-74
2023/02/14 11:23:48;;;;;;;25.10;16.30;;;;;;;4.77;75.68;98890.04;108638;1251;102137;-75
2023/02/14 11:26:26;;;;;;;25.40;16.90;;;;;;;4.77;75.67;98894.69;108780;1252;101359;-74
2023/02/14 11:29:04;;;;;;;27.70;16.20;;;;;;;4.75;75.58;98894.19;108755;1252;98454;-73
2023/02/14 11:31:37;;;;;;;29.60;17.30;;;;;;;4.75;75.58;98887.02;108750;1253;96002;-76
2023/02/14 11:34:22;;;;;;;25.70;15.40;;;;;;;4.80;75.45;98886.27;108799;1253;97106;-74
2023/02/14 11:36:50;;;;;;;28.50;16.20;;;;;;;4.82;75.16;98884.11;108757;1252;103423;-77
2023/02/14 11:39:30;;;;;;;26.80;16.10;;;;;;;4.81;74.99;98882.25;108779;1251;100416;-74
2023/02/14 11:42:02;;;;;;;24.40;15.20;;;;;;;4.80;75.01;98879.96;108654;1251;100002;-74
2023/02/14 11:44:33;;;;;;;27.90;14.50;;;;;;;4.81;74.92;98882.52;108651;1251;95672;-74
2023/02/14 11:47:41;;;;;;;22.10;14.90;;;;;;;4.76;74.76;98876.73;108786;1251;96000;-74
2023/02/14 11:50:30;;;;;;;22.00;14.40;;;;;;;4.77;74.97;98873.59;108796;1251;103561;-75
2023/02/14 11:52:58;;;;;;;24.70;14.70;;;;;;;4.82;74.94;98874.60;108728;1251;101380;-74
2023/02/14 11:55:33;;;;;;;22.10;14.70;;;;;;;4.87;74.75;98867.37;108808;1251;100108;-75
2023/02/14 11:58:04;;;;;;;26.30;15.70;;;;;;;4.89;74.63;98863.97;108748;1251;95832;-74
2023/02/14 12:00:34;;;;;;;23.30;14.50;;;;;;;4.91;74.56;98861.30;108778;1251;95812;-74